Time;durP1;ratioP1;P1;durP2;ratioP2;P2;SDS_P1;SDS_P2;PMS_P1;PMS_P2;Temp;Humidity;BMP_temperature;BMP_pressure;BME280_temperature;BME280_humidity;BME280_pressure;Samples;Min_cycle;Max_cycle;Signal;HPM_P1;HPM_P2
2021/07/21 00:02:39;;;;;;;11.73;6.38;;;;;;;29.66;61.25;100785.09;5069384;27;65550;-45
2021/07/21 00:05:12;;;;;;;13.43;6.45;;;;;;;29.75;61.49;100791.91;5069685;27;70325;-49
2021/07/21 00:07:43;;;;;;;11.57;6.97;;;;;;;29.78;62.14;100796.91;5072465;27;66339;-43
2021/07/21 00:10:16;;;;;;;13.77;7.00;;;;;;;29.67;63.00;100784.06;5072817;27;69680;-42
2021/07/21 00:15:40;;;;;;;23.52;8.18;;;;;;;29.69;64.61;100781.94;5075460;27;69683;-38
2021/07/21 00:18:28;;;;;;;19.52;8.15;;;;;;;29.89;64.73;100805.38;5071126;27;43455;-45
2021/07/21 00:20:59;;;;;;;21.35;9.25;;;;;;;29.91;65.98;100816.81;5065767;27;70165;-40
2021/07/21 00:23:31;;;;;;;18.90;8.43;;;;;;;29.96;65.62;100814.28;5064759;27;65036;-43
2021/07/21 00:26:16;;;;;;;29.58;9.77;;;;;;;29.95;65.81;100824.28;5069228;27;70199;-37
2021/07/21 00:28:46;;;;;;;27.20;10.23;;;;;;;29.99;66.42;100824.69;5066687;27;66548;-46
2021/07/21 00:31:16;;;;;;;25.88;9.98;;;;;;;30.03;66.80;100820.47;5065560;27;69022;-44
2021/07/21 00:33:48;;;;;;;32.60;9.98;;;;;;;30.04;66.56;100822.97;5069436;27;65589;-43
2021/07/21 00:36:19;;;;;;;31.85;10.00;;;;;;;30.04;67.48;100832.97;5064728;27;69767;-42
2021/07/21 00:38:49;;;;;;;19.70;11.05;;;;;;;30.06;67.50;100836.28;5063633;27;66235;-46
2021/07/21 00:41:20;;;;;;;16.90;10.90;;;;;;;30.09;67.35;100830.47;5065385;27;70020;-44
2021/07/21 00:43:50;;;;;;;25.90;11.10;;;;;;;30.13;67.91;100833.56;5067083;27;65382;-44
2021/07/21 00:46:22;;;;;;;21.85;11.10;;;;;;;30.15;67.97;100835.00;5068557;27;69382;-44
2021/07/21 00:48:55;;;;;;;21.52;11.02;;;;;;;30.17;68.55;100830.22;5075016;27;66481;-42
2021/07/21 00:51:26;;;;;;;12.30;10.82;;;;;;;30.17;68.48;100824.78;5072289;27;69106;-44
2021/07/21 00:53:57;;;;;;;18.13;11.38;;;;;;;30.20;68.91;100843.28;5074994;27;66433;-43
2021/07/21 00:56:38;;;;;;;15.13;11.82;;;;;;;30.25;68.81;100842.66;5073443;27;70104;-43
2021/07/21 00:59:09;;;;;;;22.75;12.63;;;;;;;30.30;68.52;100850.13;5073503;27;66332;-44
2021/07/21 01:01:43;;;;;;;18.10;11.35;;;;;;;30.35;68.22;100847.63;5073390;27;70728;-46
2021/07/21 01:04:13;;;;;;;15.68;11.13;;;;;;;30.39;68.59;100848.81;5066768;27;66575;-45
2021/07/21 01:06:45;;;;;;;21.15;11.80;;;;;;;30.34;68.80;100838.66;5073776;27;69980;-44
2021/07/21 01:09:16;;;;;;;16.97;11.97;;;;;;;30.43;68.28;100853.59;5087136;27;66166;-45
2021/07/21 01:12:32;;;;;;;19.25;11.95;;;;;;;30.37;68.86;100848.19;5073342;27;69444;-45
2021/07/21 01:15:23;;;;;;;18.58;11.77;;;;;;;30.43;68.84;100858.19;5071539;27;66738;-45
2021/07/21 01:18:01;;;;;;;18.10;12.27;;;;;;;30.49;68.74;100865.44;5070121;27;69869;-45
2021/07/21 01:20:56;;;;;;;14.30;11.43;;;;;;;30.47;68.93;100867.50;5060539;27;66461;-46
2021/07/21 01:23:49;;;;;;;19.00;12.20;;;;;;;30.49;69.33;100868.94;5070729;27;69425;-43
2021/07/21 01:26:27;;;;;;;16.05;11.82;;;;;;;30.50;68.42;100858.94;5071177;27;66246;-43
2021/07/21 01:29:02;;;;;;;14.43;12.00;;;;;;;30.50;68.79;100858.94;5054840;28;70490;-44
2021/07/21 01:31:40;;;;;;;14.50;11.38;;;;;;;30.44;68.89;100841.72;5073503;27;65771;-44
2021/07/21 01:34:12;;;;;;;15.23;11.18;;;;;;;30.61;68.69;100863.66;5074588;27;70114;-43
2021/07/21 01:36:50;;;;;;;22.52;11.35;;;;;;;30.67;68.56;100859.25;5079705;27;65415;-43
2021/07/21 01:39:28;;;;;;;19.55;11.95;;;;;;;30.39;69.00;100819.88;5063330;28;69272;-44
2021/07/21 01:42:04;;;;;;;15.77;11.95;;;;;;;30.68;67.67;100861.75;5048660;27;66152;-43
2021/07/21 01:44:40;;;;;;;15.23;10.95;;;;;;;30.48;68.37;100834.81;5079563;27;70119;-45
2021/07/21 01:47:15;;;;;;;13.07;11.65;;;;;;;30.72;68.33;100871.06;5075317;27;65588;-42
2021/07/21 01:49:48;;;;;;;17.50;10.65;;;;;;;30.75;68.38;100867.09;5090663;27;69302;-44
2021/07/21 01:52:25;;;;;;;18.98;11.70;;;;;;;30.57;68.67;100832.69;5078039;27;66327;-45
2021/07/21 01:55:01;;;;;;;25.00;10.68;;;;;;;30.56;68.87;100836.41;5076388;27;69066;-47
2021/07/21 01:57:43;;;;;;;54.65;12.60;;;;;;;30.72;67.07;100873.78;5076801;27;65432;-45
2021/07/21 02:00:43;;;;;;;15.68;10.20;;;;;;;30.59;65.44;100870.34;5075072;27;69988;-44
2021/07/21 02:03:17;;;;;;;16.67;8.80;;;;;;;30.52;63.48;100877.69;5077441;27;66796;-40
2021/07/21 02:05:54;;;;;;;12.30;9.18;;;;;;;30.41;62.86;100876.50;5060344;27;69486;-41
2021/07/21 02:08:27;;;;;;;21.52;8.32;;;;;;;30.31;61.95;100870.72;5075240;27;66216;-41
2021/07/21 02:11:18;;;;;;;9.27;6.70;;;;;;;30.13;60.86;100857.91;5071020;27;69373;-40
2021/07/21 02:13:51;;;;;;;7.40;6.28;;;;;;;30.10;60.40;100861.03;5070705;27;66257;-39
2021/07/21 02:16:38;;;;;;;6.88;5.60;;;;;;;29.98;59.42;100855.47;5071792;27;69279;-39
2021/07/21 02:19:15;;;;;;;8.55;5.00;;;;;;;29.97;59.10;100853.81;5088950;27;67222;-38
2021/07/21 02:22:01;;;;;;;5.93;4.18;;;;;;;29.92;58.82;100854.47;5073373;27;70340;-40
2021/07/21 02:24:36;;;;;;;4.03;3.70;;;;;;;29.79;57.89;100841.81;5069829;27;66510;-41
2021/07/21 02:27:15;;;;;;;27.95;5.43;;;;;;;29.89;58.09;100846.75;5063795;27;69951;-40
2021/07/21 02:29:51;;;;;;;52.20;5.15;;;;;;;29.78;56.87;100832.06;5073232;27;66160;-42
2021/07/21 02:32:32;;;;;;;19.40;4.72;;;;;;;29.63;57.27;100801.72;5052135;27;69442;-38
2021/07/21 02:35:04;;;;;;;35.10;5.25;;;;;;;29.81;55.49;100845.16;5072616;27;66540;-39
2021/07/21 02:37:36;;;;;;;46.60;5.78;;;;;;;29.78;54.47;100839.31;5075611;27;70156;-39
2021/07/21 02:40:10;;;;;;;48.42;6.20;;;;;;;29.80;55.29;100838.06;5074216;27;66609;-41
2021/07/21 02:42:40;;;;;;;40.00;6.35;;;;;;;29.76;55.15;100826.03;5065163;27;69274;-42
2021/07/21 02:45:12;;;;;;;32.25;6.20;;;;;;;29.78;54.95;100823.94;5053104;28;66114;-38
2021/07/21 02:47:43;;;;;;;30.13;6.53;;;;;;;29.83;54.66;100817.88;5068113;27;70072;-39
2021/07/21 02:50:17;;;;;;;34.47;6.57;;;;;;;29.84;53.14;100822.25;5054140;28;65495;-39
2021/07/21 02:53:03;;;;;;;30.95;6.35;;;;;;;29.78;52.84;100813.13;5075040;27;69787;-39
2021/07/21 02:56:01;;;;;;;26.42;6.22;;;;;;;29.79;52.68;100798.56;5070161;27;66575;-39
2021/07/21 02:59:03;;;;;;;33.47;7.00;;;;;;;29.71;51.67;100812.31;5056984;27;69090;-43
2021/07/21 03:01:39;;;;;;;44.03;6.05;;;;;;;29.81;52.83;100807.28;5073669;27;65685;-37
2021/07/21 03:04:12;;;;;;;34.10;5.85;;;;;;;29.78;51.54;100840.16;5072100;27;70354;-38
2021/07/21 03:06:50;;;;;;;25.67;5.43;;;;;;;29.72;52.18;100846.41;5073752;27;66908;-43
2021/07/21 03:09:23;;;;;;;11.85;6.00;;;;;;;29.68;51.20;100872.22;5065733;27;70639;-45
2021/07/21 03:12:01;;;;;;;17.05;5.55;;;;;;;29.62;50.23;100867.63;5055981;28;66512;-42
2021/07/21 03:14:43;;;;;;;13.55;5.57;;;;;;;29.63;50.35;100869.31;5083359;27;69987;-41
2021/07/21 03:17:16;;;;;;;14.73;4.93;;;;;;;29.61;50.70;100876.75;5075617;27;66111;-40
2021/07/21 03:19:57;;;;;;;28.65;5.50;;;;;;;29.32;49.69;100837.56;5057910;27;70802;-38
2021/07/21 03:22:29;;;;;;;28.55;4.60;;;;;;;29.48;49.97;100860.59;5071804;27;64684;-41
2021/07/21 03:25:11;;;;;;;21.88;4.55;;;;;;;29.53;49.65;100893.22;5068993;27;70167;-43
2021/07/21 03:27:53;;;;;;;29.95;4.43;;;;;;;29.25;50.51;100840.25;5055193;27;65162;-39
2021/07/21 03:30:41;;;;;;;21.60;3.58;;;;;;;29.43;50.18;100884.72;5059017;27;69810;-37
2021/07/21 03:33:15;;;;;;;28.00;4.35;;;;;;;29.38;51.95;100888.88;5075140;27;65257;-43
2021/07/21 03:35:52;;;;;;;30.45;4.50;;;;;;;29.43;51.32;100887.44;5074254;27;69069;-43
2021/07/21 03:38:43;;;;;;;31.90;3.77;;;;;;;29.37;50.97;100871.00;5070302;27;65859;-42
2021/07/21 03:41:25;;;;;;;30.25;3.70;;;;;;;29.07;50.45;100823.88;5061595;27;69864;-40
2021/07/21 03:43:55;;;;;;;22.70;3.53;;;;;;;29.31;51.19;100861.03;5070865;27;66485;-44
2021/07/21 03:46:26;;;;;;;21.67;3.80;;;;;;;29.25;51.34;100851.06;5070715;27;69307;-42
2021/07/21 03:49:00;;;;;;;40.15;3.00;;;;;;;29.33;51.14;100841.91;5074387;27;65256;-41
2021/07/21 03:51:50;;;;;;;26.35;3.13;;;;;;;29.30;51.43;100840.44;5073790;27;70503;-42
2021/07/21 03:54:40;;;;;;;24.27;3.08;;;;;;;29.33;51.27;100837.31;5071389;27;65324;-42
2021/07/21 03:57:28;;;;;;;16.60;3.22;;;;;;;29.38;52.73;100832.13;5070571;27;69596;-43
2021/07/21 03:59:58;;;;;;;5.10;2.67;;;;;;;29.43;53.25;100826.09;5074821;27;66167;-40
2021/07/21 04:02:45;;;;;;;14.02;2.85;;;;;;;29.50;53.08;100826.88;5076955;27;69171;-40
2021/07/21 04:05:16;;;;;;;13.15;2.88;;;;;;;29.51;52.81;100823.16;5072320;27;65861;-42
2021/07/21 04:07:48;;;;;;;11.60;2.30;;;;;;;29.55;51.87;100829.78;5077975;27;69694;-42
2021/07/21 04:10:28;;;;;;;10.30;3.40;;;;;;;29.60;52.23;100826.47;5055022;28;66154;-41
2021/07/21 04:13:05;;;;;;;4.93;2.10;;;;;;;29.55;51.56;100824.38;5073477;27;70274;-39
2021/07/21 04:16:12;;;;;;;10.82;2.55;;;;;;;29.55;51.47;100818.16;5059942;27;65803;-39
2021/07/21 04:19:03;;;;;;;14.77;3.10;;;;;;;29.53;51.80;100814.84;5056889;27;69289;-38
2021/07/21 04:21:41;;;;;;;4.43;2.10;;;;;;;29.59;51.32;100822.09;5073994;27;65608;-40
2021/07/21 04:24:13;;;;;;;2.42;1.73;;;;;;;29.57;51.58;100811.50;5068488;27;69823;-41
2021/07/21 04:26:45;;;;;;;8.05;2.17;;;;;;;29.53;51.09;100812.13;5076249;27;65996;-38
2021/07/21 04:29:20;;;;;;;9.18;2.35;;;;;;;29.53;50.84;100814.84;5058033;28;69333;-42
2021/07/21 04:31:52;;;;;;;11.30;2.10;;;;;;;29.54;51.13;100794.88;5075118;27;68495;-40
2021/07/21 04:34:27;;;;;;;10.48;2.42;;;;;;;29.55;51.04;100793.84;5072141;27;70139;-41
2021/07/21 04:37:00;;;;;;;22.27;2.40;;;;;;;29.40;50.49;100770.59;5069485;27;66367;-39
2021/07/21 04:40:10;;;;;;;25.90;2.40;;;;;;;29.29;51.74;100746.94;5063180;27;69534;-36
2021/07/21 04:42:44;;;;;;;13.23;2.35;;;;;;;29.54;51.43;100781.38;5055086;27;66216;-39
2021/07/21 04:45:17;;;;;;;3.30;2.60;;;;;;;29.51;51.20;100769.13;5079538;27;69612;-40
2021/07/21 04:47:53;;;;;;;10.50;2.83;;;;;;;29.58;51.45;100782.59;5071530;27;66671;-37
2021/07/21 04:50:27;;;;;;;17.27;2.72;;;;;;;29.56;50.99;100781.97;5070943;27;69391;-42
2021/07/21 04:52:59;;;;;;;21.55;2.42;;;;;;;29.57;51.09;100784.47;5072830;27;66174;-43
2021/07/21 04:55:32;;;;;;;28.90;2.70;;;;;;;29.57;51.92;100778.25;5073699;27;69878;-38
2021/07/21 04:58:03;;;;;;;17.17;2.75;;;;;;;29.60;52.39;100783.22;5052268;28;65450;-39
2021/07/21 05:00:40;;;;;;;30.35;3.17;;;;;;;29.53;52.63;100766.19;5069055;27;70141;-38
2021/07/21 05:03:22;;;;;;;35.28;3.10;;;;;;;29.56;52.82;100776.56;5071354;27;66600;-39
2021/07/21 05:05:56;;;;;;;25.38;3.10;;;;;;;29.52;52.56;100767.22;5071515;27;70137;-38
2021/07/21 05:08:36;;;;;;;34.22;2.88;;;;;;;29.48;53.32;100755.22;5049338;27;66250;-39
2021/07/21 05:11:21;;;;;;;18.38;2.35;;;;;;;29.54;52.95;100760.56;5069242;27;70800;-40
2021/07/21 05:13:56;;;;;;;27.33;2.42;;;;;;;29.54;52.67;100748.94;5063472;27;65402;-42
2021/07/21 05:16:36;;;;;;;21.17;2.50;;;;;;;29.58;52.01;100769.06;5049500;27;68813;-39
2021/07/21 05:19:07;;;;;;;21.90;2.83;;;;;;;29.51;51.94;100752.06;5087983;27;65864;-48
2021/07/21 05:21:38;;;;;;;23.38;2.53;;;;;;;29.51;51.56;100747.50;5052702;27;69270;-42
2021/07/21 05:24:09;;;;;;;12.98;1.95;;;;;;;29.49;50.67;100737.94;5084529;27;66023;-41
2021/07/21 05:26:41;;;;;;;11.80;2.15;;;;;;;29.50;50.15;100728.78;5068713;27;70817;-43
2021/07/21 05:29:19;;;;;;;12.65;1.83;;;;;;;29.51;50.12;100725.03;5052387;27;66231;-43
2021/07/21 05:32:03;;;;;;;6.85;2.10;;;;;;;29.51;49.40;100716.94;5038988;27;69112;-43
2021/07/21 05:34:33;;;;;;;9.90;1.80;;;;;;;29.48;49.19;100699.28;5066999;27;66622;-40
2021/07/21 05:37:17;;;;;;;10.82;2.30;;;;;;;29.51;49.75;100698.03;5071868;27;69838;-40
2021/07/21 05:39:54;;;;;;;3.75;1.42;;;;;;;29.48;49.32;100693.06;5066456;27;65831;-42
2021/07/21 05:42:44;;;;;;;7.78;1.50;;;;;;;29.48;49.23;100696.56;5065388;27;69019;-40
2021/07/21 05:45:15;;;;;;;4.53;1.48;;;;;;;29.49;48.84;100689.28;5065236;27;65367;-41
2021/07/21 05:47:45;;;;;;;3.30;1.30;;;;;;;29.47;48.67;100694.06;5070232;27;69346;-39
2021/07/21 05:50:16;;;;;;;3.78;1.35;;;;;;;29.46;48.49;100687.03;5069773;28;65698;-40
2021/07/21 05:52:57;;;;;;;3.80;1.40;;;;;;;29.43;48.74;100677.47;5051558;28;69932;-40
2021/07/21 05:55:42;;;;;;;2.60;1.40;;;;;;;29.41;48.29;100666.03;5063938;27;65692;-40
2021/07/21 05:58:18;;;;;;;2.38;1.10;;;;;;;29.42;48.03;100669.56;5069909;27;69371;-38
2021/07/21 06:00:51;;;;;;;1.67;1.00;;;;;;;29.42;48.20;100650.66;5070051;27;66581;-42
2021/07/21 06:03:27;;;;;;;7.55;1.25;;;;;;;29.36;48.59;100653.19;5072751;27;69861;-42
2021/07/21 06:06:30;;;;;;;3.08;1.08;;;;;;;29.40;48.94;100654.41;5040907;27;64585;-40
2021/07/21 06:09:02;;;;;;;2.80;0.90;;;;;;;29.37;48.05;100637.81;5067983;27;69320;-43
2021/07/21 06:11:45;;;;;;;4.63;0.80;;;;;;;29.19;47.32;100625.00;5055943;28;65294;-39
2021/07/21 06:14:19;;;;;;;2.10;0.82;;;;;;;29.35;47.44;100651.53;5068342;27;69721;-39
2021/07/21 06:16:50;;;;;;;1.75;0.90;;;;;;;29.34;47.11;100639.06;5071882;27;66656;-39
2021/07/21 06:19:22;;;;;;;1.65;1.00;;;;;;;29.32;47.05;100641.16;5075584;27;70312;-40
2021/07/21 06:21:52;;;;;;;3.78;0.82;;;;;;;29.32;46.29;100627.63;5071713;27;66394;-43
2021/07/21 06:24:49;;;;;;;1.10;0.70;;;;;;;29.28;46.44;100639.94;5072678;27;69495;-41
2021/07/21 06:27:43;;;;;;;9.60;1.05;;;;;;;29.29;46.40;100635.34;5076941;27;66548;-40
2021/07/21 06:30:14;;;;;;;1.33;0.80;;;;;;;29.28;46.26;100639.94;5073616;27;69741;-40
2021/07/21 06:32:46;;;;;;;1.67;0.88;;;;;;;29.26;45.70;100633.91;5056522;27;65388;-40
2021/07/21 06:35:19;;;;;;;1.35;0.70;;;;;;;29.28;45.41;100645.34;5074141;27;69881;-40
2021/07/21 06:37:50;;;;;;;1.83;1.13;;;;;;;29.27;45.93;100643.66;5077006;27;65066;-39
2021/07/21 06:40:24;;;;;;;1.40;0.80;;;;;;;29.29;45.50;100651.56;5076627;27;70468;-39
2021/07/21 06:42:54;;;;;;;1.23;0.82;;;;;;;29.28;44.90;100656.16;5070438;27;65879;-38
2021/07/21 06:45:26;;;;;;;2.30;1.00;;;;;;;29.26;45.78;100630.38;5071405;27;70133;-40
2021/07/21 06:48:14;;;;;;;1.23;0.90;;;;;;;29.26;45.62;100658.22;5072734;27;66836;-39
2021/07/21 06:50:45;;;;;;;3.17;0.80;;;;;;;29.23;45.19;100647.03;5073677;27;70665;-39
2021/07/21 06:53:15;;;;;;;1.63;1.05;;;;;;;29.27;45.57;100651.75;5073789;27;65694;-40
2021/07/21 06:56:04;;;;;;;11.60;1.05;;;;;;;29.31;45.98;100655.72;5065924;27;69346;-40
2021/07/21 06:58:46;;;;;;;4.43;1.17;;;;;;;29.29;45.74;100641.59;5074327;27;65739;-39
2021/07/21 07:01:20;;;;;;;10.82;1.10;;;;;;;29.27;45.78;100630.16;5058568;28;70197;-44
2021/07/21 07:04:09;;;;;;;9.13;1.70;;;;;;;29.31;45.78;100650.31;5075351;27;65668;-44
2021/07/21 07:07:18;;;;;;;13.57;1.75;;;;;;;29.31;46.13;100644.06;5032872;28;70062;-40
2021/07/21 07:10:15;;;;;;;8.15;1.30;;;;;;;29.33;45.65;100666.28;5015401;28;65924;-42
2021/07/21 07:12:48;;;;;;;11.25;1.30;;;;;;;29.34;45.84;100657.16;5060956;27;70027;-41
2021/07/21 07:15:18;;;;;;;11.07;1.50;;;;;;;29.28;45.56;100630.97;5071216;27;65488;-39
2021/07/21 07:17:50;;;;;;;4.18;1.65;;;;;;;29.32;45.95;100630.34;5059289;27;70403;-40
2021/07/21 07:20:20;;;;;;;7.80;1.30;;;;;;;29.25;45.68;100628.72;5070161;27;66260;-41
2021/07/21 07:22:51;;;;;;;5.25;1.27;;;;;;;29.24;45.40;100633.28;5074065;27;69595;-41
2021/07/21 07:25:22;;;;;;;7.10;1.38;;;;;;;29.23;45.33;100615.44;5068267;27;66077;-44
2021/07/21 07:27:53;;;;;;;12.27;1.53;;;;;;;29.32;45.13;100621.41;5066548;27;69707;-40
2021/07/21 07:30:24;;;;;;;5.30;1.38;;;;;;;29.35;44.91;100612.88;5072610;27;66353;-39
2021/07/21 07:32:54;;;;;;;8.30;1.23;;;;;;;29.33;45.00;100610.38;5071357;27;70237;-42
2021/07/21 07:35:25;;;;;;;6.72;1.25;;;;;;;29.35;44.58;100613.69;5077297;27;66662;-43
2021/07/21 07:38:00;;;;;;;8.57;1.50;;;;;;;29.40;44.29;100604.94;5068539;27;68515;-45
2021/07/21 07:40:30;;;;;;;4.88;1.30;;;;;;;29.37;44.55;100608.09;5068888;27;66587;-42
2021/07/21 07:43:01;;;;;;;2.75;1.30;;;;;;;29.41;43.84;100612.00;5058370;28;69928;-41
2021/07/21 07:45:32;;;;;;;6.07;1.25;;;;;;;29.44;44.58;100598.06;5069784;27;65649;-39
2021/07/21 07:48:03;;;;;;;9.05;1.10;;;;;;;29.44;44.40;100589.13;5074615;27;68982;-39
2021/07/21 07:50:33;;;;;;;7.03;1.30;;;;;;;29.29;43.96;100565.94;5073972;27;66210;-39
2021/07/21 07:53:04;;;;;;;2.33;1.20;;;;;;;29.48;44.30;100587.66;5072514;27;69803;-40
2021/07/21 07:55:37;;;;;;;3.28;1.27;;;;;;;29.48;43.67;100588.47;5074663;27;66270;-39
2021/07/21 07:58:07;;;;;;;4.70;1.30;;;;;;;29.51;43.39;100589.91;5066029;27;70303;-37
2021/07/21 08:00:38;;;;;;;3.92;1.45;;;;;;;29.49;43.64;100578.50;5068563;27;66532;-43
2021/07/21 08:03:09;;;;;;;5.50;1.23;;;;;;;29.51;43.74;100585.34;5061910;27;68951;-43
2021/07/21 08:05:40;;;;;;;1.60;0.93;;;;;;;29.49;43.44;100564.97;5053401;27;66270;-43
2021/07/21 08:08:11;;;;;;;5.80;1.00;;;;;;;29.54;43.96;100571.38;5056568;27;69212;-40
2021/07/21 08:10:41;;;;;;;2.33;1.10;;;;;;;29.51;43.73;100558.31;5069894;27;66106;-39
2021/07/21 08:13:12;;;;;;;4.57;0.75;;;;;;;29.52;44.54;100569.94;5067629;27;68811;-40
2021/07/21 08:15:43;;;;;;;21.27;1.30;;;;;;;29.51;44.59;100562.91;5078767;27;66168;-35
2021/07/21 08:18:14;;;;;;;21.85;1.48;;;;;;;29.59;45.21;100570.75;5077652;27;70590;-36
2021/07/21 08:20:45;;;;;;;15.38;1.20;;;;;;;29.62;44.76;100562.19;5072081;27;66068;-36
2021/07/21 08:23:18;;;;;;;14.52;1.15;;;;;;;29.61;44.65;100558.66;5074040;27;70221;-39
2021/07/21 08:25:48;;;;;;;21.40;1.38;;;;;;;29.54;44.54;100562.47;5072237;27;65765;-36
2021/07/21 08:28:19;;;;;;;16.88;1.13;;;;;;;29.59;43.98;100571.56;5053299;28;69475;-36
2021/07/21 08:30:50;;;;;;;5.78;1.60;;;;;;;29.60;44.43;100561.56;5065637;27;66503;-40
2021/07/21 08:33:21;;;;;;;5.50;1.17;;;;;;;29.62;44.23;100564.91;5062443;27;69692;-39
2021/07/21 08:35:52;;;;;;;8.70;1.10;;;;;;;29.62;44.00;100554.09;5075264;27;65614;-36
2021/07/21 08:38:22;;;;;;;8.18;1.02;;;;;;;29.60;43.87;100550.75;5071915;27;70074;-36
2021/07/21 08:40:56;;;;;;;11.95;0.93;;;;;;;29.35;42.86;100502.91;5071497;27;66993;-38
2021/07/21 08:43:28;;;;;;;5.95;0.80;;;;;;;29.60;42.71;100551.59;5074026;27;70141;-36
2021/07/21 08:45:59;;;;;;;10.35;1.10;;;;;;;29.55;43.82;100526.25;5074586;27;65628;-38
2021/07/21 08:48:30;;;;;;;7.97;1.00;;;;;;;29.67;46.36;100535.38;5073108;27;70156;-39
2021/07/21 08:51:00;;;;;;;11.55;1.13;;;;;;;29.73;47.81;100529.06;5073737;27;66484;-38
2021/07/21 08:53:32;;;;;;;6.93;1.10;;;;;;;29.77;47.61;100535.69;5068160;27;69951;-37
2021/07/21 08:56:03;;;;;;;10.77;1.27;;;;;;;29.75;47.98;100535.06;5068643;27;66205;-37
2021/07/21 08:58:34;;;;;;;34.35;1.45;;;;;;;29.81;47.64;100536.91;5073063;27;69689;-42
2021/07/21 09:01:04;;;;;;;24.02;1.63;;;;;;;29.93;53.08;100545.13;5075647;27;66251;-38
2021/07/21 09:03:35;;;;;;;11.30;1.40;;;;;;;30.13;55.82;100528.69;5072053;27;70261;-35
2021/07/21 09:06:05;;;;;;;10.05;1.50;;;;;;;30.28;55.46;100531.91;5072567;27;65588;-38
2021/07/21 09:08:36;;;;;;;11.00;1.63;;;;;;;30.40;55.68;100528.44;5076359;27;70837;-40
2021/07/21 09:11:07;;;;;;;10.20;1.65;;;;;;;30.59;55.61;100532.81;5069665;27;65168;-37
2021/07/21 09:13:39;;;;;;;7.95;1.60;;;;;;;30.68;56.65;100531.44;5073664;27;69323;-40
2021/07/21 09:16:11;;;;;;;2.43;1.10;;;;;;;30.77;58.94;100540.06;5072391;27;65187;-36
2021/07/21 09:18:56;;;;;;;1.17;1.00;;;;;;;30.83;58.90;100530.22;5070985;27;71048;-34
2021/07/21 09:21:27;;;;;;;9.43;0.75;;;;;;;30.91;57.45;100535.34;5071537;27;65911;-37
2021/07/21 09:23:58;;;;;;;9.80;0.88;;;;;;;30.93;57.96;100541.38;5070687;27;69797;-35
2021/07/21 09:26:29;;;;;;;14.13;1.27;;;;;;;31.01;58.76;100541.03;5070752;27;66413;-37
2021/07/21 09:29:02;;;;;;;5.28;0.80;;;;;;;31.06;58.90;100543.88;5073252;27;70087;-36
2021/07/21 09:31:43;;;;;;;2.65;0.70;;;;;;;31.11;59.33;100535.88;5071388;27;66822;-36
2021/07/21 09:34:18;;;;;;;3.07;0.77;;;;;;;31.12;59.63;100537.56;5074289;27;69195;-36
2021/07/21 09:37:07;;;;;;;3.10;0.93;;;;;;;31.05;60.36;100525.16;5072025;27;66292;-37
2021/07/21 09:39:40;;;;;;;4.13;0.70;;;;;;;31.13;59.52;100539.19;5069932;27;69309;-37
2021/07/21 09:42:12;;;;;;;4.05;1.10;;;;;;;31.21;60.18;100556.19;5068484;27;66450;-37
2021/07/21 09:44:45;;;;;;;1.15;0.80;;;;;;;31.25;59.76;100551.94;5074972;27;69727;-35
2021/07/21 09:47:20;;;;;;;1.77;0.88;;;;;;;31.28;59.30;100549.59;5070840;27;65835;-37
2021/07/21 09:50:10;;;;;;;2.15;0.90;;;;;;;31.29;60.07;100553.16;5073298;27;69131;-36
2021/07/21 09:52:49;;;;;;;2.85;1.50;;;;;;;31.24;60.57;100544.91;5074703;27;65309;-37
2021/07/21 09:55:20;;;;;;;2.03;1.20;;;;;;;31.28;60.75;100563.16;5075551;27;69273;-36
2021/07/21 09:58:00;;;;;;;1.43;1.00;;;;;;;31.28;61.18;100557.72;5078604;27;64674;-36
2021/07/21 10:00:40;;;;;;;2.58;1.27;;;;;;;31.33;60.88;100560.56;5081021;27;70256;-36
2021/07/21 10:03:23;;;;;;;2.65;1.95;;;;;;;31.34;60.53;100553.28;5076234;27;66358;-36
2021/07/21 10:05:59;;;;;;;3.90;1.95;;;;;;;31.34;60.95;100551.41;5075144;27;70118;-36
2021/07/21 10:08:44;;;;;;;4.43;2.17;;;;;;;31.34;61.49;100550.56;5072528;27;65841;-35
2021/07/21 10:11:30;;;;;;;2.80;1.83;;;;;;;31.37;61.04;100555.53;5075100;27;70236;-39
2021/07/21 10:14:04;;;;;;;3.90;1.73;;;;;;;31.41;60.68;100554.03;5074358;27;64647;-38
2021/07/21 10:16:36;;;;;;;8.82;2.00;;;;;;;31.39;60.72;100565.09;5073495;27;69466;-40
2021/07/21 10:19:17;;;;;;;6.75;2.30;;;;;;;31.35;60.71;100563.88;5076462;27;65805;-37
2021/07/21 10:21:51;;;;;;;3.28;2.03;;;;;;;31.33;60.08;100566.00;5074959;27;70363;-36
2021/07/21 10:24:24;;;;;;;3.67;1.90;;;;;;;31.02;60.30;100512.88;5069948;27;65325;-41
2021/07/21 10:26:55;;;;;;;4.68;1.92;;;;;;;31.30;61.21;100565.66;5070962;27;70602;-41
2021/07/21 10:29:27;;;;;;;3.53;3.20;;;;;;;31.29;60.40;100564.81;5074068;27;66407;-35
2021/07/21 10:31:58;;;;;;;3.88;3.15;;;;;;;31.29;60.82;100572.94;5085168;27;67967;-36
2021/07/21 10:34:35;;;;;;;3.60;3.05;;;;;;;31.31;60.92;100572.69;5070952;27;66497;-34
2021/07/21 10:37:05;;;;;;;8.00;2.90;;;;;;;31.26;60.97;100569.84;5076094;27;69578;-42
2021/07/21 10:39:37;;;;;;;3.75;2.53;;;;;;;31.34;60.66;100580.38;5076101;27;65769;-35
2021/07/21 10:42:15;;;;;;;2.72;2.53;;;;;;;31.08;61.06;100541.75;5077970;27;69622;-37
2021/07/21 10:45:18;;;;;;;2.95;2.75;;;;;;;31.26;60.17;100580.69;5081998;27;65610;-35
2021/07/21 10:47:51;;;;;;;3.67;3.13;;;;;;;31.31;60.53;100578.13;5076307;27;69640;-37
2021/07/21 10:59:17;;;;;;;4.65;3.42;;;;;;;30.97;60.90;100531.72;5055604;28;70456;-33
2021/07/21 11:02:00;;;;;;;5.20;3.50;;;;;;;31.24;61.38;100585.53;5058035;27;65447;-40
2021/07/21 11:04:45;;;;;;;4.35;4.00;;;;;;;31.22;61.57;100574.91;5070822;27;70530;-36
2021/07/21 11:07:35;;;;;;;16.13;3.47;;;;;;;31.27;60.34;100577.78;5075474;27;66208;-36
2021/07/21 11:10:07;;;;;;;5.43;4.10;;;;;;;31.13;60.30;100554.63;5071002;27;70373;-37
2021/07/21 11:12:49;;;;;;;3.60;3.30;;;;;;;31.28;60.74;100587.53;5065895;27;66344;-35
2021/07/21 11:15:37;;;;;;;7.40;3.53;;;;;;;31.24;61.39;100589.06;5074864;27;69671;-40
2021/07/21 11:18:23;;;;;;;3.72;3.42;;;;;;;31.30;60.57;100587.31;5075722;27;66043;-39
2021/07/21 11:21:07;;;;;;;7.60;3.22;;;;;;;31.29;60.97;100591.09;5070915;27;69887;-34
2021/07/21 11:23:47;;;;;;;3.97;3.65;;;;;;;31.33;60.28;100587.69;5070078;27;66095;-37
2021/07/21 11:26:35;;;;;;;3.47;3.17;;;;;;;31.29;61.09;100591.09;5065666;27;70715;-39
2021/07/21 11:29:24;;;;;;;3.47;3.25;;;;;;;31.27;60.91;100588.59;5072547;27;66178;-37
2021/07/21 11:31:54;;;;;;;3.42;3.13;;;;;;;31.34;60.83;100593.91;5071095;27;69900;-39
2021/07/21 11:34:39;;;;;;;3.03;2.75;;;;;;;31.04;61.04;100551.41;5075920;27;66527;-39
2021/07/21 11:37:26;;;;;;;3.53;3.22;;;;;;;31.34;60.38;100594.78;5074939;27;70322;-38
2021/07/21 11:40:13;;;;;;;6.13;3.80;;;;;;;31.31;61.08;100594.38;5070285;27;66837;-34
2021/07/21 11:42:43;;;;;;;6.32;3.80;;;;;;;31.33;60.77;100600.41;5057259;27;69314;-36
2021/07/21 11:45:21;;;;;;;4.05;3.45;;;;;;;31.35;62.41;100595.59;5073403;27;66288;-39
2021/07/21 11:47:59;;;;;;;5.88;3.75;;;;;;;31.32;60.94;100602.31;5073010;27;69731;-37
2021/07/21 11:50:32;;;;;;;3.88;3.33;;;;;;;30.92;60.58;100542.41;5073879;27;66452;-37
2021/07/21 11:53:10;;;;;;;3.88;3.50;;;;;;;31.32;60.11;100612.31;5072494;27;69567;-40
2021/07/21 11:55:41;;;;;;;10.32;3.42;;;;;;;31.30;60.55;100611.72;5055682;27;65094;-38
2021/07/21 11:58:15;;;;;;;3.90;3.60;;;;;;;31.28;60.46;100611.09;5059890;28;70331;-39
2021/07/21 12:00:50;;;;;;;3.78;3.47;;;;;;;31.16;60.03;100598.34;5075024;27;66560;-40
2021/07/21 12:03:23;;;;;;;5.13;3.38;;;;;;;31.23;60.37;100619.09;5069316;27;70377;-38
2021/07/21 12:05:56;;;;;;;3.10;2.88;;;;;;;31.21;61.16;100627.47;5070193;27;65838;-36
2021/07/21 12:08:27;;;;;;;13.43;3.60;;;;;;;31.19;61.65;100617.91;5074642;27;70083;-41
2021/07/21 12:11:08;;;;;;;11.98;3.55;;;;;;;31.21;61.55;100632.06;5071435;27;66811;-42
2021/07/21 12:13:40;;;;;;;3.88;3.58;;;;;;;31.18;61.12;100644.19;5071526;27;70044;-39
2021/07/21 12:16:13;;;;;;;3.50;2.78;;;;;;;31.23;60.47;100651.59;5075017;27;65960;-41